createdAt,value
2019-03-12T00:02:14.810Z,37.77
2019-03-12T00:07:39.041Z,39.13
2019-03-12T00:12:44.049Z,41.30
2019-03-12T00:17:49.065Z,42.47
2019-03-12T00:22:54.052Z,35.83
2019-03-12T00:27:59.102Z,36.23
2019-03-12T00:33:04.551Z,35.00
2019-03-12T00:38:09.607Z,39.47
2019-03-12T00:43:14.620Z,34.73
2019-03-12T00:48:20.616Z,35.97
2019-03-12T00:53:25.983Z,38.13
2019-03-12T00:58:31.361Z,41.67
2019-03-12T01:03:46.585Z,42.27
2019-03-12T01:08:51.619Z,40.07
2019-03-12T01:13:59.147Z,36.70
2019-03-12T01:19:04.683Z,35.30
2019-03-12T01:24:09.863Z,36.27
2019-03-12T01:29:14.965Z,34.37
2019-03-12T01:34:20.277Z,38.77
2019-03-12T01:39:25.301Z,35.10
2019-03-12T01:44:30.432Z,38.70
2019-03-12T01:49:35.433Z,40.07
2019-03-12T01:54:40.457Z,37.17
2019-03-12T01:59:45.499Z,40.17
2019-03-12T02:04:50.511Z,39.67
2019-03-12T02:09:56.333Z,32.87
2019-03-12T02:15:01.413Z,34.47
2019-03-12T02:20:10.513Z,36.13
2019-03-12T02:25:17.867Z,31.70
2019-03-12T02:30:22.852Z,36.20
2019-03-12T02:35:27.875Z,40.87
2019-03-12T02:40:33.978Z,41.70
2019-03-12T02:45:38.948Z,36.10
2019-03-12T02:50:43.990Z,30.90
2019-03-12T02:55:48.976Z,39.43
2019-03-12T03:00:54.960Z,37.57
2019-03-12T03:06:25.570Z,35.20
2019-03-12T03:11:31.006Z,36.27
2019-03-12T03:16:35.986Z,35.17
2019-03-12T03:21:41.036Z,40.53
2019-03-12T03:26:46.063Z,38.73
2019-03-12T03:31:51.524Z,38.00
2019-03-12T03:36:56.736Z,33.03
2019-03-12T03:42:02.108Z,37.13
2019-03-12T03:47:09.296Z,36.03
2019-03-12T03:52:17.081Z,38.60
2019-03-12T03:57:22.054Z,42.43
2019-03-12T04:02:27.161Z,38.97
2019-03-12T04:07:32.174Z,36.63
2019-03-12T04:12:37.179Z,36.67
2019-03-12T04:17:42.178Z,34.03
2019-03-12T04:22:47.191Z,38.93
2019-03-12T04:27:52.589Z,41.77
2019-03-12T04:32:57.715Z,40.63
2019-03-12T04:38:02.736Z,40.90
2019-03-12T04:43:07.774Z,45.60
2019-03-12T04:48:12.832Z,44.27
2019-03-12T04:53:18.641Z,41.23
2019-03-12T04:58:23.660Z,43.23
2019-03-12T05:03:53.160Z,37.40
2019-03-12T05:08:59.335Z,32.80
2019-03-12T05:14:35.501Z,39.23
2019-03-12T05:19:44.517Z,41.87
2019-03-12T05:24:50.009Z,39.53
2019-03-12T05:29:55.045Z,44.10
2019-03-12T05:35:00.120Z,41.57
2019-03-12T05:40:05.487Z,40.13
2019-03-12T05:45:11.030Z,29.67
2019-03-12T05:50:16.346Z,34.93
2019-03-12T05:55:24.381Z,34.93
2019-03-12T06:00:29.395Z,36.43
2019-03-12T06:05:35.708Z,36.27
2019-03-12T06:10:40.795Z,38.40
2019-03-12T06:15:46.619Z,38.13
2019-03-12T06:20:51.703Z,34.00
2019-03-12T06:25:56.736Z,32.60
2019-03-12T06:31:29.630Z,39.40
2019-03-12T06:36:55.162Z,38.17
2019-03-12T06:42:08.222Z,29.23
2019-03-12T06:47:31.520Z,28.50
2019-03-12T06:52:50.066Z,31.20
2019-03-12T06:58:23.713Z,29.90
2019-03-12T07:03:47.066Z,28.53
2019-03-12T07:09:09.531Z,29.30
2019-03-12T07:14:29.112Z,26.27
2019-03-12T07:20:05.844Z,30.03
2019-03-12T07:25:35.831Z,30.07
2019-03-12T07:30:54.551Z,24.17
2019-03-12T07:36:22.585Z,34.47
2019-03-12T07:41:34.951Z,30.17
2019-03-12T07:46:49.989Z,22.73
2019-03-12T07:52:29.555Z,24.20
2019-03-12T07:57:45.336Z,28.50
2019-03-12T08:03:15.866Z,20.70
2019-03-12T08:08:31.444Z,18.57
2019-03-12T08:13:54.492Z,18.33
2019-03-12T08:19:05.046Z,17.77
2019-03-12T08:24:53.560Z,17.97
2019-03-12T08:30:20.700Z,16.93
2019-03-12T08:35:53.781Z,15.10
2019-03-12T08:41:20.735Z,15.77
2019-03-12T08:46:51.065Z,18.50
2019-03-12T08:52:06.911Z,16.67
2019-03-12T08:57:33.958Z,16.60
2019-03-12T09:03:05.435Z,16.67
2019-03-12T09:08:33.542Z,19.67
2019-03-12T09:13:59.210Z,20.17
2019-03-12T09:19:18.140Z,17.17
2019-03-12T09:24:42.395Z,15.57
2019-03-12T09:30:09.199Z,18.97
2019-03-12T09:35:33.734Z,19.50
2019-03-12T09:41:00.621Z,20.60
2019-03-12T09:46:30.284Z,24.50
2019-03-12T09:51:54.961Z,20.57
2019-03-12T09:57:18.728Z,23.17
2019-03-12T10:02:46.190Z,18.53
2019-03-12T10:07:58.594Z,19.07
2019-03-12T10:13:23.663Z,19.23
2019-03-12T10:18:38.967Z,20.80
2019-03-12T10:34:35.792Z,17.47
2019-03-12T10:40:05.866Z,18.00
2019-03-12T10:45:44.956Z,13.88
2019-03-12T10:50:50.250Z,13.22
2019-03-12T10:55:55.434Z,13.90
2019-03-12T11:01:00.601Z,14.33
2019-03-12T11:26:22.490Z,16.70
2019-03-12T11:31:28.296Z,14.65
2019-03-12T11:36:34.065Z,14.73
2019-03-12T11:41:39.492Z,13.70
2019-03-12T11:46:53.419Z,15.90
2019-03-12T11:51:59.323Z,15.17
2019-03-12T11:57:05.876Z,15.50
2019-03-12T12:47:49.386Z,14.47
2019-03-12T12:52:54.423Z,13.77
2019-03-12T12:57:59.566Z,20.23
2019-03-12T13:03:04.692Z,16.97
2019-03-12T13:08:10.076Z,15.10
2019-03-12T13:13:15.356Z,16.90
2019-03-12T13:18:25.558Z,14.93
2019-03-12T13:23:30.765Z,14.70
2019-03-12T13:28:35.756Z,14.28
2019-03-12T13:33:40.905Z,14.03
2019-03-12T13:38:48.025Z,15.03
2019-03-12T14:09:16.362Z,14.78
2019-03-12T14:14:26.548Z,14.40
2019-03-12T14:19:32.616Z,16.60
2019-03-12T14:24:37.894Z,15.50
2019-03-12T14:29:43.006Z,15.90
2019-03-12T14:34:48.163Z,15.83
2019-03-12T14:39:54.869Z,15.50
2019-03-12T14:45:01.731Z,15.50
2019-03-12T14:50:10.282Z,14.70
2019-03-12T14:55:15.798Z,14.13
2019-03-12T15:00:22.756Z,15.40
2019-03-12T15:05:38.297Z,15.00
2019-03-12T15:10:45.724Z,15.97
2019-03-12T15:15:52.647Z,14.73
2019-03-12T15:21:00.611Z,14.30
2019-03-12T15:26:06.216Z,15.57
2019-03-12T15:31:23.050Z,14.77
2019-03-12T15:36:28.812Z,14.13
2019-03-12T15:41:33.915Z,14.70
2019-03-12T15:46:39.102Z,15.37
2019-03-12T15:51:49.055Z,15.40
2019-03-12T15:57:03.582Z,16.20
2019-03-12T16:02:08.580Z,16.63
2019-03-12T16:07:13.658Z,16.10
2019-03-12T16:12:18.736Z,16.47
2019-03-12T16:17:23.953Z,14.20
2019-03-12T16:22:29.026Z,14.20
2019-03-12T16:27:52.395Z,14.37
2019-03-12T16:32:58.068Z,14.87
2019-03-12T16:38:03.230Z,13.60
2019-03-12T16:43:09.180Z,15.80
2019-03-12T16:48:14.322Z,14.40
2019-03-12T16:53:23.520Z,13.93
2019-03-12T16:58:28.809Z,17.10
2019-03-12T17:03:34.004Z,18.07
2019-03-12T17:08:39.484Z,15.30
2019-03-12T17:13:44.492Z,16.20
2019-03-12T17:18:50.587Z,14.20
2019-03-12T17:23:55.906Z,17.63
2019-03-12T17:29:01.308Z,16.37
2019-03-12T17:34:07.154Z,17.30
2019-03-12T17:39:12.450Z,15.33
2019-03-12T17:44:19.424Z,22.17
2019-03-12T17:49:26.722Z,22.43
2019-03-12T17:54:36.660Z,20.57
2019-03-12T17:59:42.376Z,17.97
2019-03-12T18:04:47.695Z,20.40
2019-03-12T18:09:53.102Z,15.60
2019-03-12T18:14:59.154Z,17.13
2019-03-12T18:20:07.987Z,22.23
2019-03-12T18:25:27.046Z,20.73
2019-03-12T18:30:32.294Z,20.50
2019-03-12T18:35:37.497Z,22.67
2019-03-12T18:40:44.692Z,19.83
2019-03-12T18:45:52.937Z,21.03
2019-03-12T18:50:58.945Z,21.60
2019-03-12T18:56:08.411Z,17.73
2019-03-12T19:01:14.762Z,15.50
2019-03-12T19:06:20.070Z,15.53
2019-03-12T19:11:25.260Z,19.13
2019-03-12T19:16:30.603Z,17.47
2019-03-12T19:21:36.532Z,18.30
2019-03-12T19:26:43.324Z,21.10
2019-03-12T19:32:13.338Z,18.90
2019-03-12T19:37:25.896Z,15.80
2019-03-12T19:42:32.179Z,15.50
2019-03-12T19:47:37.469Z,15.90
2019-03-12T19:52:53.622Z,14.23
2019-03-12T19:57:59.728Z,15.67
2019-03-12T20:03:13.301Z,14.57
2019-03-12T20:08:32.250Z,14.40
2019-03-12T20:14:17.211Z,14.87
2019-03-12T20:20:09.528Z,14.90
2019-03-12T20:25:54.369Z,17.43
2019-03-12T20:31:35.087Z,21.17
2019-03-12T20:37:46.835Z,21.70
2019-03-12T20:43:31.040Z,23.10
2019-03-12T20:49:22.486Z,28.20
2019-03-12T20:55:22.826Z,17.27
2019-03-12T21:01:04.410Z,20.40
2019-03-12T21:06:41.767Z,21.17
2019-03-12T21:12:29.534Z,21.63
2019-03-12T21:18:04.563Z,25.47
2019-03-12T21:23:31.903Z,24.43
2019-03-12T21:29:02.845Z,27.40
2019-03-12T21:34:08.559Z,22.87
2019-03-12T21:39:13.667Z,22.43
2019-03-12T21:44:19.114Z,26.87
2019-03-12T21:49:24.268Z,25.53
2019-03-12T21:54:29.753Z,28.10
2019-03-12T21:59:35.038Z,22.27
2019-03-12T22:04:41.338Z,21.63
2019-03-12T22:09:46.507Z,21.07
2019-03-12T22:14:51.737Z,24.77
2019-03-12T22:20:18.156Z,23.37
2019-03-12T22:25:24.925Z,24.67
2019-03-12T22:30:29.922Z,22.87
2019-03-12T22:35:37.434Z,21.83
2019-03-12T22:40:42.627Z,20.03
2019-03-12T22:45:47.592Z,17.97
2019-03-12T22:50:52.903Z,21.93
2019-03-12T22:55:57.906Z,22.53
2019-03-12T23:01:03.417Z,21.77
2019-03-12T23:06:28.671Z,17.13
2019-03-12T23:11:50.808Z,16.07
2019-03-12T23:16:57.417Z,15.20
2019-03-12T23:22:03.235Z,15.60
2019-03-12T23:27:09.743Z,19.60
2019-03-12T23:32:16.730Z,18.30
2019-03-12T23:37:21.881Z,19.50
2019-03-12T23:42:28.909Z,22.90
2019-03-12T23:47:34.026Z,24.97
2019-03-12T23:52:39.135Z,18.83
2019-03-12T23:57:44.461Z,25.53
